Latest Weather Observations for Parawa West

IDS60901

Issued at 9:41 pm CST Saturday 5 September 2015 (issued every 10 minutes, with the page automatically refreshed every 10 minutes)

About weather observations | Map of Adelaide area stations | Latest observations for Adelaide area | Other Formats
Station Details ID: 023875 Name: SECOND VALLEY FOREST AWS Lat: -35.57 Lon: 138.29 Height: 341.0 m
Data from the previous 72 hours. | See also: Recent months at Parawa West
Date/Time
CST
Tmp

°C
App
Tmp
°C
Dew
Point
°C
Rel
Hum
%
Delta-T

°C
Wind Press
QNH
hPa
Press
MSL
hPa
Rain
since
9 am
mm
Dir
 
Spd
km/h
Gust
km/h
Spd
kts
Gust
kts
05/09:30pm 9.0 7.8 4.6 74 2.0 CALM 0 0 0 0 1020.1 1020.2 0.0
05/09:00pm 8.9 7.8 4.9 76 1.8 CALM 0 2 0 1 1019.9 1020.0 0.0
05/08:30pm 8.9 7.8 4.9 76 1.8 CALM 0 0 0 0 1020.1 1020.2 0.0
05/08:00pm 9.2 8.0 4.8 74 2.0 CALM 0 2 0 1 1020.1 1020.2 0.0
05/07:30pm 9.5 8.4 4.9 73 2.1 CALM 0 0 0 0 1020.1 1020.2 0.0
05/07:00pm 9.7 8.6 4.9 72 2.2 CALM 0 0 0 0 1020.2 1020.3 0.0
05/06:30pm 9.3 8.2 5.3 76 1.8 CALM 0 2 0 1 1019.8 1019.9 0.0
05/06:00pm 9.6 8.6 5.6 76 1.9 CALM 0 0 0 0 1019.7 1019.8 0.0
05/05:30pm 10.1 9.2 6.1 76 1.9 CALM 0 0 0 0 1019.5 1019.6 0.0
05/05:00pm 11.1 10.1 5.8 70 2.5 CALM 0 2 0 1 1019.6 1019.7 0.0
05/04:30pm 11.8 10.5 6.1 68 2.7 NNE 2 7 1 4 1019.3 1019.4 0.0
05/04:00pm 12.3 10.1 5.5 63 3.2 NNW 6 11 3 6 1019.6 1019.7 0.0
05/03:30pm 12.1 9.9 5.5 64 3.1 NNW 6 13 3 7 1019.7 1019.8 0.0
05/03:00pm 12.1 9.8 5.5 64 3.1 NW 7 15 4 8 1020.0 1020.1 0.0
05/02:30pm 11.6 9.9 6.1 69 2.6 NNW 4 13 2 7 1020.4 1020.4 0.0
05/02:00pm 10.7 8.4 5.5 70 2.4 NNW 7 15 4 8 1020.7 1020.7 0.0
05/01:30pm 10.5 8.0 6.5 76 1.9 NNW 9 17 5 9 1020.9 1020.9 0.0
05/01:00pm 10.8 7.8 6.0 72 2.3 NNW 11 19 6 10 1021.4 1021.4 0.0
05/12:30pm 10.1 7.1 6.1 76 1.9 NNW 11 19 6 10 1021.8 1021.9 0.0
05/12:00pm 10.1 6.1 5.1 71 2.3 NW 15 24 8 13 1022.2 1022.3 0.0
05/11:30am 10.9 7.7 5.2 68 2.6 NW 11 19 6 10 1022.4 1022.5 0.0
05/11:00am 10.5 8.4 5.7 72 2.3 WNW 6 9 3 5 1022.5 1022.6 0.0
05/10:30am 10.7 8.7 6.3 74 2.1 NE 6 9 3 5 1022.9 1023.0 0.0
05/10:00am 10.5 8.7 5.5 71 2.3 NE 4 9 2 5 1023.7 1023.7 0.0
05/09:30am 10.7 8.9 5.3 69 2.5 N 4 13 2 7 1024.1 1024.1 0.0
05/09:00am 10.3 8.5 5.5 72 2.2 NNE 4 11 2 6 1024.2 1024.2 0.0
05/08:30am 8.7 6.4 4.7 76 1.8 NE 6 7 3 4 1024.2 1024.2 0.0
05/08:00am 7.5 4.9 4.3 80 1.4 NE 7 11 4 6 1024.2 1024.2 0.0
05/07:30am 6.8 3.4 3.8 81 1.3 NE 11 15 6 8 1024.0 1024.0 0.0
05/07:00am 6.1 2.6 3.4 83 1.2 ENE 11 15 6 8 1024.1 1024.1 0.0
05/06:30am 5.9 2.3 3.1 82 1.2 ENE 11 15 6 8 1024.1 1024.1 0.0
05/06:00am 5.9 2.3 2.9 81 1.3 ENE 11 15 6 8 1024.0 1024.0 0.0
05/05:30am 6.0 2.4 3.0 81 1.3 ENE 11 13 6 7 1023.9 1023.9 0.0
05/05:00am 5.8 2.1 2.6 80 1.3 ENE 11 13 6 7 1023.6 1023.6 0.0
05/04:30am 5.8 2.1 2.6 80 1.3 ENE 11 13 6 7 1023.1 1023.2 0.0
05/04:00am 5.7 2.8 2.4 79 1.4 ENE 7 9 4 5 1023.0 1023.1 0.0
05/03:30am 6.2 2.9 2.7 78 1.5 ENE 9 11 5 6 1023.1 1023.2 0.0
05/03:00am 5.0 2.2 2.0 81 1.2 ENE 6 7 3 4 1023.2 1023.3 0.0
05/02:30am 5.1 2.3 2.3 82 1.1 ENE 6 7 3 4 1023.7 1023.7 0.0
05/02:00am 5.3 2.5 2.3 81 1.2 ENE 6 7 3 4 1024.1 1024.1 0.0
05/01:30am 6.0 3.1 2.8 80 1.3 ENE 7 9 4 5 1024.4 1024.5 0.0
05/01:00am 6.8 4.2 3.2 78 1.5 ENE 6 7 3 4 1024.8 1024.9 0.0
05/12:30am 7.0 4.2 3.4 78 1.5 ENE 7 11 4 6 1024.8 1024.9 0.0
05/12:00am 7.0 4.3 3.6 79 1.5 ENE 7 11 4 6 1025.0 1025.1 0.0
 
Date/Time
CST
Tmp

°C
App
Tmp
°C
Dew
Point
°C
Rel
Hum
%
Delta-T

°C
Wind Press
QNH
hPa
Press
MSL
hPa
Rain
since
9 am
mm
Dir
 
Spd
km/h
Gust
km/h
Spd
kts
Gust
kts
04/11:30pm 7.3 4.6 3.9 79 1.5 E 7 9 4 5 1025.3 1025.4 0.0
04/11:00pm 6.8 4.3 3.6 80 1.4 E 6 7 3 4 1025.5 1025.6 0.0
04/10:30pm 6.9 4.4 3.5 79 1.5 SE 6 7 3 4 1025.9 1026.0 0.0
04/10:00pm 7.7 5.0 3.7 76 1.8 SE 7 9 4 5 1026.1 1026.2 0.0
04/09:30pm 8.1 5.1 3.9 75 1.8 ESE 9 15 5 8 1026.1 1026.2 0.0
04/09:00pm 7.9 5.3 4.1 77 1.7 ESE 7 9 4 5 1026.1 1026.2 0.0
04/08:30pm 8.1 6.0 4.1 76 1.8 ESE 4 6 2 3 1026.2 1026.3 0.0
04/08:00pm 8.1 5.0 3.8 74 1.9 ESE 9 13 5 7 1025.9 1026.0 0.0
04/07:30pm 8.2 6.2 4.2 76 1.8 SW 4 6 2 3 1025.7 1025.8 0.0
04/07:00pm 8.3 6.7 4.3 76 1.8 SW 2 4 1 2 1025.5 1025.6 0.0
04/06:30pm 8.5 7.2 4.1 74 1.9 CALM 0 0 0 0 1025.6 1025.7 0.0
04/06:00pm 8.6 6.3 4.8 77 1.7 SSE 6 7 3 4 1025.5 1025.6 0.0
04/05:30pm 8.9 6.4 4.9 76 1.8 S 7 11 4 6 1025.5 1025.6 0.0
04/05:00pm 9.2 6.4 5.2 76 1.8 SSE 9 11 5 6 1025.4 1025.5 0.0
04/04:30pm 9.3 6.5 5.1 75 1.9 SSE 9 13 5 7 1025.2 1025.3 0.0
04/04:00pm 9.6 7.1 5.0 73 2.1 SSE 7 11 4 6 1025.2 1025.3 0.0
04/03:30pm 9.6 6.7 4.8 72 2.2 S 9 13 5 7 1025.3 1025.4 0.0
04/03:00pm 9.7 7.4 4.9 72 2.2 S 6 9 3 5 1025.3 1025.4 0.0
04/02:30pm 9.6 8.0 6.3 80 1.5 W 4 7 2 4 1025.3 1025.4 0.0
04/02:00pm 9.6 7.4 6.3 80 1.6 WNW 7 9 4 5 1025.4 1025.5 0.0
04/01:30pm 9.7 7.5 6.2 79 1.6 NW 7 11 4 6 1025.7 1025.8 0.0
04/01:00pm 10.2 8.1 4.1 66 2.8 SE 4 7 2 4 1026.1 1026.2 0.0
04/12:30pm 10.0 7.7 4.8 70 2.4 SE 6 9 3 5 1026.6 1026.6 0.0
04/12:00pm 9.9 7.8 4.1 67 2.6 SE 4 9 2 5 1026.8 1026.9 0.0
04/11:30am 9.8 6.9 4.4 69 2.4 SE 9 15 5 8 1026.8 1026.9 0.0
04/11:00am 9.7 6.8 4.5 70 2.4 SSE 9 11 5 6 1027.0 1027.1 0.0
04/10:30am 9.4 6.5 4.6 72 2.2 SSE 9 15 5 8 1027.4 1027.5 0.0
04/10:00am 9.3 7.1 5.5 77 1.8 S 6 9 3 5 1027.6 1027.7 0.0
04/09:30am 8.8 8.0 6.3 84 1.2 CALM 0 2 0 1 1027.6 1027.7 0.0
04/09:00am 8.4 6.8 6.4 87 0.9 S 4 6 2 3 1027.6 1027.7 1.0
04/08:30am 8.1 6.5 6.2 88 0.9 E 4 6 2 3 1027.7 1027.8 1.0
04/08:00am 7.7 6.1 6.3 91 0.7 S 4 7 2 4 1027.6 1027.7 1.0
04/07:30am 7.4 6.1 5.9 90 0.7 S 2 4 1 2 1027.3 1027.4 1.0
04/07:00am 7.2 5.5 5.8 91 0.6 SE 4 6 2 3 1027.0 1027.1 1.0
04/06:30am 7.2 4.9 5.8 91 0.6 SE 7 9 4 5 1026.6 1026.6 1.0
04/06:00am 7.0 4.0 5.9 93 0.5 ESE 11 15 6 8 1026.1 1026.2 1.0
04/05:30am 7.0 4.1 6.3 95 0.3 SE 11 17 6 9 1026.0 1026.1 1.0
04/05:00am 6.9 4.9 6.2 95 0.3 SE 6 9 3 5 1025.7 1025.8 1.0
04/04:30am 7.0 5.4 6.3 95 0.3 SSE 4 6 2 3 1025.7 1025.8 1.0
04/04:00am 7.1 5.5 6.4 95 0.3 SSE 4 6 2 3 1025.6 1025.7 1.0
04/03:30am 7.2 6.4 6.5 95 0.3 CALM 0 2 0 1 1025.5 1025.6 1.0
04/03:00am 7.3 5.7 6.4 94 0.4 SSE 4 6 2 3 1025.7 1025.8 1.0
04/02:30am 7.2 5.2 6.3 94 0.4 SE 6 7 3 4 1026.1 1026.2 1.0
04/02:00am 7.1 4.9 6.2 94 0.4 SE 7 11 4 6 1026.2 1026.3 1.0
04/01:30am 7.3 4.3 5.9 91 0.6 SSE 11 17 6 9 1026.1 1026.2 1.0
04/01:00am 7.5 6.3 6.3 92 0.6 SSE 2 4 1 2 1026.1 1026.2 0.8
04/12:30am 7.4 6.5 6.0 91 0.6 CALM 0 0 0 0 1026.2 1026.3 0.8
04/12:00am 7.5 5.5 6.1 91 0.6 SE 6 9 3 5 1026.1 1026.2 0.8
 
Date/Time
CST
Tmp

°C
App
Tmp
°C
Dew
Point
°C
Rel
Hum
%
Delta-T

°C
Wind Press
QNH
hPa
Press
MSL
hPa
Rain
since
9 am
mm
Dir
 
Spd
km/h
Gust
km/h
Spd
kts
Gust
kts
03/11:30pm 7.7 3.7 6.5 92 0.6 S 17 24 9 13 1026.1 1026.2 0.8
03/11:00pm 7.9 6.4 6.8 93 0.5 SSE 4 6 2 3 1026.1 1026.2 0.8
03/10:30pm 7.9 5.8 6.8 93 0.5 S 7 19 4 10 1026.1 1026.2 0.8
03/10:00pm 8.0 4.8 6.8 92 0.6 S 13 20 7 11 1026.0 1026.1 0.8
03/09:30pm 7.7 4.1 6.8 94 0.4 SSE 15 26 8 14 1025.8 1025.9 0.8
03/09:00pm 7.8 5.3 6.7 93 0.5 S 9 13 5 7 1025.7 1025.8 0.4
03/08:30pm 7.6 3.2 6.5 93 0.5 S 19 26 10 14 1025.5 1025.6 0.4
03/08:00pm 8.3 4.4 6.9 91 0.7 S 17 22 9 12 1025.4 1025.5 0.4
03/07:30pm 8.8 5.5 6.6 86 1.0 SSW 13 17 7 9 1025.2 1025.3 0.4
03/07:00pm 8.9 5.8 7.2 89 0.8 S 13 24 7 13 1024.9 1025.0 0.4
03/06:30pm 8.9 5.0 7.0 88 0.9 S 17 22 9 12 1024.6 1024.7 0.4
03/06:00pm 9.1 5.7 7.5 90 0.8 S 15 28 8 15 1024.3 1024.4 0.4
03/05:30pm 9.2 5.4 7.6 90 0.8 S 17 22 9 12 1024.0 1024.0 0.4
03/05:00pm 9.3 5.1 7.6 89 0.8 S 19 24 10 13 1023.8 1023.8 0.4
03/04:30pm 9.3 5.2 7.9 91 0.7 S 19 28 10 15 1023.2 1023.3 0.4
03/04:00pm 9.4 4.8 8.0 91 0.7 S 22 33 12 18 1023.0 1023.1 0.4
03/03:30pm 9.6 5.0 8.0 90 0.8 S 22 32 12 17 1022.5 1022.6 0.4
03/03:00pm 9.5 3.7 7.9 90 0.8 S 28 35 15 19 1022.1 1022.2 0.4
03/02:30pm 9.7 4.8 8.6 93 0.5 S 24 35 13 19 1021.7 1021.7 0.4
03/02:00pm 9.8 4.6 8.7 93 0.5 SSW 26 35 14 19 1021.7 1021.7 0.4
03/01:30pm 9.9 5.6 9.3 96 0.3 SSW 22 32 12 17 1021.7 1021.7 0.4
03/01:00pm 9.4 3.8 8.9 97 0.2 S 28 37 15 20 1021.9 1022.0 0.4
03/12:30pm 9.6 4.5 9.1 97 0.3 S 26 37 14 20 1021.6 1021.6 0.4
03/12:00pm 9.7 4.2 9.2 97 0.3 SSW 28 39 15 21 1021.7 1021.7 0.4
03/11:30am 9.6 4.5 9.1 97 0.3 S 26 37 14 20 1021.6 1021.6 0.2
03/11:00am 10.0 3.8 9.4 96 0.3 S 32 43 17 23 1021.1 1021.1 0.0
03/10:30am 10.0 3.8 9.4 96 0.3 S 32 43 17 23 1021.1 1021.1 0.0
03/10:00am 10.2 4.8 9.6 96 0.3 S 28 41 15 22 1020.8 1020.8 0.0
03/09:30am 10.2 4.4 9.4 95 0.4 S 30 43 16 23 1020.2 1020.3 0.0
03/09:00am 10.3 3.2 9.7 96 0.3 S 37 57 20 31 1019.6 1019.7 13.2
03/08:54am 10.1 3.4 9.5 96 0.3 S 35 57 19 31 1019.3 1019.4 13.2
03/08:30am 10.1 3.4 9.6 97 0.3 S 35 46 19 25 1018.8 1018.8 13.2
03/08:00am 10.0 3.8 9.5 97 0.3 S 32 44 17 24 1018.2 1018.2 13.2
03/07:30am 9.9 2.8 9.4 97 0.3 S 37 54 20 29 1017.4 1017.4 13.2
03/07:16am 9.8 2.3 9.3 97 0.3 S 39 57 21 31 1017.0 1017.1 13.2
03/07:00am 10.0 3.3 9.5 97 0.3 S 35 50 19 27 1016.7 1016.7 13.2
03/06:41am 10.0 3.3 9.5 97 0.3 S 35 56 19 30 1016.2 1016.2 12.8
03/06:30am 10.0 2.9 9.4 96 0.3 S 37 50 20 27 1016.0 1016.0 12.4
03/06:00am 10.2 4.1 9.6 96 0.3 S 32 48 17 26 1015.6 1015.6 12.2
03/05:30am 9.9 4.4 9.3 96 0.3 SSW 28 39 15 21 1015.2 1015.2 12.2
03/05:00am 9.9 4.9 9.4 97 0.3 S 26 37 14 20 1014.5 1014.5 12.2
03/04:30am 9.8 5.1 9.3 97 0.3 SSW 24 35 13 19 1013.6 1013.6 12.2
03/04:00am 9.7 5.0 9.1 96 0.3 SSW 24 33 13 18 1013.0 1013.0 12.2
03/03:30am 9.8 5.4 9.0 95 0.4 SSW 22 35 12 19 1012.6 1012.6 11.8
03/03:00am 9.7 5.3 8.9 95 0.4 SSW 22 35 12 19 1012.2 1012.2 11.8
03/02:30am 9.5 5.4 8.7 95 0.4 SSW 20 28 11 15 1012.2 1012.2 11.8
03/02:00am 9.3 5.4 8.7 96 0.3 S 19 26 10 14 1011.9 1011.9 11.8
03/01:30am 9.0 4.8 8.2 95 0.4 SSW 20 26 11 14 1011.9 1011.9 11.8
03/01:00am 9.0 4.4 8.2 95 0.4 SSW 22 30 12 16 1011.4 1011.3 11.8
03/12:30am 9.1 4.8 7.7 91 0.7 SSW 20 28 11 15 1011.2 1011.1 11.8
03/12:00am 9.2 5.2 8.1 93 0.5 SSW 19 28 10 15 1010.7 1010.7 11.8
 
Date/Time
CST
Tmp

°C
App
Tmp
°C
Dew
Point
°C
Rel
Hum
%
Delta-T

°C
Wind Press
QNH
hPa
Press
MSL
hPa
Rain
since
9 am
mm
Dir
 
Spd
km/h
Gust
km/h
Spd
kts
Gust
kts
02/11:30pm 8.6 4.8 7.4 92 0.6 SSW 17 24 9 13 1010.2 1010.2 11.8
02/11:00pm 8.6 4.8 7.5 93 0.5 S 17 20 9 11 1009.8 1009.8 11.8
02/10:30pm 8.8 5.4 7.6 92 0.6 SSE 15 20 8 11 1009.1 1009.0 11.8
02/10:00pm 9.1 4.9 8.2 94 0.4 S 20 28 11 15 1009.1 1009.0 11.8

Latest Capital City Observations: Canberra | Sydney | Melbourne | Brisbane | Adelaide | Perth | Hobart | Darwin

Other Formats:

Comma delimited format used in spreadsheet applications
http://www.bom.gov.au/fwo/IDS60901/IDS60901.94811.axf

JavaScript Object Notation format (JSON) in row-major order
http://www.bom.gov.au/fwo/IDS60901/IDS60901.94811.json